Time;durP1;ratioP1;P1;durP2;ratioP2;P2;SDS_P1;SDS_P2;PMS_P1;PMS_P2;Temp;Humidity;BMP_temperature;BMP_pressure;BME280_temperature;BME280_humidity;BME280_pressure;Samples;Min_cycle;Max_cycle;Signal;HPM_P1;HPM_P2
2023/06/30 00:02:46;;;;;;;8.10;5.75;;;19.80;99.90;;;;;;4978560;28;20369;-73
2023/06/30 00:05:36;;;;;;;9.35;5.93;;;19.80;99.90;;;;;;4988090;28;20280;-73
2023/06/30 00:08:27;;;;;;;7.93;5.95;;;19.70;99.90;;;;;;4987259;28;20239;-73
2023/06/30 00:11:23;;;;;;;6.90;5.30;;;19.80;99.90;;;;;;4975223;28;20242;-74
2023/06/30 00:14:12;;;;;;;6.50;5.90;;;19.90;99.90;;;;;;4979942;28;20270;-74
2023/06/30 00:17:01;;;;;;;8.65;5.55;;;19.80;99.90;;;;;;4986470;28;20837;-73
2023/06/30 00:19:50;;;;;;;6.45;5.03;;;19.70;99.90;;;;;;4987410;28;20547;-75
2023/06/30 00:22:39;;;;;;;5.53;5.03;;;19.60;99.90;;;;;;4974272;28;20859;-71
2023/06/30 00:25:30;;;;;;;6.63;5.30;;;19.60;99.90;;;;;;4995606;28;20551;-73
2023/06/30 00:28:19;;;;;;;9.27;5.32;;;19.60;99.90;;;;;;4993716;28;20808;-70
2023/06/30 00:31:08;;;;;;;7.68;5.78;;;19.60;99.90;;;;;;4978424;28;20226;-72
2023/06/30 00:33:58;;;;;;;6.53;5.85;;;19.60;99.90;;;;;;4997313;28;20733;-72
2023/06/30 00:36:46;;;;;;;7.25;5.25;;;19.60;99.90;;;;;;4973224;28;20679;-72
2023/06/30 00:39:35;;;;;;;6.55;5.63;;;19.50;99.90;;;;;;4985418;28;20255;-72
2023/06/30 00:42:26;;;;;;;6.55;4.90;;;19.50;99.90;;;;;;4980371;28;20231;-69
2023/06/30 00:45:15;;;;;;;6.63;5.43;;;19.50;99.90;;;;;;4979393;28;20690;-72
2023/06/30 00:48:04;;;;;;;5.78;5.20;;;19.50;99.90;;;;;;4988557;28;20224;-71
2023/06/30 00:50:54;;;;;;;6.80;5.30;;;19.60;99.90;;;;;;4982697;28;20230;-71
2023/06/30 00:53:43;;;;;;;6.22;5.38;;;19.50;99.90;;;;;;4969302;28;20231;-71
2023/06/30 00:56:32;;;;;;;6.60;6.00;;;19.50;99.90;;;;;;4978888;28;20274;-70
2023/06/30 00:59:22;;;;;;;6.00;5.45;;;19.40;99.90;;;;;;4976545;28;20227;-71
2023/06/30 01:02:14;;;;;;;5.93;5.32;;;19.40;99.90;;;;;;4981226;28;20282;-70
2023/06/30 01:05:10;;;;;;;6.50;5.90;;;19.40;99.90;;;;;;4987131;28;20255;-71
2023/06/30 01:08:08;;;;;;;6.30;5.70;;;19.30;99.90;;;;;;4988624;28;20220;-71
2023/06/30 01:10:58;;;;;;;8.55;5.93;;;19.30;99.90;;;;;;4980424;28;20318;-70
2023/06/30 01:13:49;;;;;;;6.85;5.88;;;19.30;99.90;;;;;;4968639;28;20234;-70
2023/06/30 01:16:42;;;;;;;6.47;5.88;;;19.30;99.90;;;;;;4966811;28;20222;-71
2023/06/30 01:19:38;;;;;;;6.40;5.80;;;19.30;99.90;;;;;;4983769;28;20227;-71
2023/06/30 01:22:46;;;;;;;6.55;5.88;;;19.20;99.90;;;;;;4970198;28;20236;-71
2023/06/30 01:25:37;;;;;;;6.10;5.50;;;19.20;99.90;;;;;;4964214;28;20238;-70
2023/06/30 01:28:28;;;;;;;6.88;5.40;;;19.20;99.90;;;;;;4980099;28;20431;-71
2023/06/30 01:31:18;;;;;;;7.50;5.93;;;19.20;99.90;;;;;;4978773;28;20239;-72
2023/06/30 01:34:08;;;;;;;7.22;5.55;;;19.10;99.90;;;;;;4974120;28;20313;-71
2023/06/30 01:36:57;;;;;;;6.30;5.70;;;19.10;99.90;;;;;;4971478;28;20614;-73
2023/06/30 01:39:48;;;;;;;6.43;5.82;;;19.10;99.90;;;;;;4977500;28;20219;-73
2023/06/30 01:42:39;;;;;;;6.60;5.97;;;19.10;99.90;;;;;;4972422;28;20227;-72
2023/06/30 01:45:29;;;;;;;7.00;6.13;;;19.00;99.90;;;;;;4978091;28;20365;-73
2023/06/30 01:48:19;;;;;;;6.30;5.65;;;19.00;99.90;;;;;;4980661;28;20220;-72
2023/06/30 01:51:15;;;;;;;6.43;5.82;;;19.00;99.90;;;;;;4971597;28;20314;-74
2023/06/30 01:54:04;;;;;;;7.25;5.65;;;19.00;99.90;;;;;;4989953;28;20773;-73
2023/06/30 01:56:53;;;;;;;6.82;5.75;;;18.90;99.90;;;;;;4989765;28;20224;-72
2023/06/30 01:59:42;;;;;;;6.22;5.63;;;18.80;99.90;;;;;;4970048;28;20231;-71
2023/06/30 02:02:31;;;;;;;7.10;5.13;;;18.80;99.90;;;;;;4967554;28;20987;-71
2023/06/30 02:05:20;;;;;;;6.20;5.60;;;18.80;99.90;;;;;;4966556;28;20223;-71
2023/06/30 02:08:10;;;;;;;7.80;5.82;;;18.60;99.90;;;;;;4979515;28;20635;-70
2023/06/30 02:10:59;;;;;;;8.38;6.03;;;18.60;99.90;;;;;;4978111;28;20230;-73
2023/06/30 02:13:51;;;;;;;6.88;6.18;;;18.60;99.90;;;;;;4992003;28;20219;-71
2023/06/30 02:16:40;;;;;;;6.53;5.93;;;18.50;99.90;;;;;;4982473;28;20230;-72
2023/06/30 02:19:29;;;;;;;6.15;5.55;;;18.60;99.90;;;;;;4971173;28;20231;-72
2023/06/30 02:22:18;;;;;;;7.30;6.45;;;18.60;99.90;;;;;;4980949;28;25497;-73
2023/06/30 02:25:09;;;;;;;6.47;5.80;;;18.60;99.90;;;;;;4974212;28;20856;-75
2023/06/30 02:27:57;;;;;;;7.13;6.43;;;18.60;99.90;;;;;;4980287;28;20226;-73
2023/06/30 02:30:46;;;;;;;7.85;6.50;;;18.60;99.90;;;;;;4979101;28;20247;-72
2023/06/30 02:33:35;;;;;;;7.90;6.60;;;18.60;99.90;;;;;;4985795;28;20223;-73
2023/06/30 02:36:24;;;;;;;10.63;6.65;;;18.50;99.90;;;;;;4964341;28;20234;-72
2023/06/30 02:39:13;;;;;;;7.28;6.50;;;18.50;99.90;;;;;;4986694;28;20304;-72
2023/06/30 02:42:04;;;;;;;7.75;7.05;;;18.50;99.90;;;;;;4974643;28;20699;-72
2023/06/30 02:44:53;;;;;;;8.05;6.47;;;18.50;99.90;;;;;;4988504;28;20288;-73
2023/06/30 02:47:42;;;;;;;8.38;6.47;;;18.50;99.90;;;;;;4986782;28;20280;-74
2023/06/30 02:50:32;;;;;;;6.80;6.10;;;18.40;99.90;;;;;;4988345;28;20226;-74
2023/06/30 02:53:22;;;;;;;9.70;6.70;;;18.40;99.90;;;;;;4991958;28;20594;-74
2023/06/30 02:56:11;;;;;;;8.10;6.53;;;18.40;99.90;;;;;;4976681;28;20318;-75
2023/06/30 02:59:02;;;;;;;9.40;7.00;;;18.50;99.90;;;;;;4985290;28;20682;-73
2023/06/30 03:01:51;;;;;;;7.70;6.93;;;18.60;99.90;;;;;;4998121;28;20329;-73
2023/06/30 03:04:40;;;;;;;7.18;6.47;;;18.60;99.90;;;;;;4980648;28;20226;-73
2023/06/30 03:07:29;;;;;;;8.57;6.85;;;18.60;99.90;;;;;;4983725;28;20681;-75
2023/06/30 03:10:19;;;;;;;7.25;6.55;;;18.50;99.90;;;;;;4980064;28;20416;-72
2023/06/30 03:13:08;;;;;;;7.55;6.50;;;18.50;99.90;;;;;;4987897;28;20674;-74
2023/06/30 03:15:59;;;;;;;7.90;7.10;;;18.50;99.90;;;;;;4994604;28;20231;-75
2023/06/30 03:18:52;;;;;;;7.13;6.40;;;18.50;99.90;;;;;;4992235;28;20227;-71
2023/06/30 03:21:42;;;;;;;9.93;7.55;;;18.40;99.90;;;;;;4976186;28;20230;-71
2023/06/30 03:24:31;;;;;;;7.90;7.05;;;18.40;99.90;;;;;;4993954;28;20231;-73
2023/06/30 03:27:21;;;;;;;9.38;7.10;;;18.50;99.90;;;;;;4980827;28;20230;-73
2023/06/30 03:30:10;;;;;;;7.97;7.20;;;18.60;99.90;;;;;;4988805;28;20215;-72
2023/06/30 03:33:06;;;;;;;8.25;7.13;;;18.50;99.90;;;;;;4986688;28;20216;-69
2023/06/30 03:35:55;;;;;;;8.52;7.05;;;18.60;99.90;;;;;;4994214;28;20215;-73
2023/06/30 03:38:45;;;;;;;9.32;7.95;;;18.70;99.90;;;;;;4994826;28;20226;-72
2023/06/30 03:41:35;;;;;;;8.77;7.13;;;18.70;99.90;;;;;;4983606;28;20224;-72
2023/06/30 03:44:23;;;;;;;11.00;7.63;;;18.60;99.90;;;;;;4984444;28;20253;-73
2023/06/30 03:47:12;;;;;;;8.70;7.90;;;18.60;99.90;;;;;;4987944;28;20282;-72
2023/06/30 03:50:03;;;;;;;9.00;7.50;;;18.60;99.90;;;;;;4979516;28;20223;-73
2023/06/30 03:52:52;;;;;;;10.70;7.70;;;18.60;99.90;;;;;;4986735;28;20791;-72
2023/06/30 03:55:41;;;;;;;10.25;7.90;;;18.60;99.90;;;;;;4994886;28;20230;-72
2023/06/30 03:58:31;;;;;;;9.35;7.55;;;18.80;99.90;;;;;;4966160;28;20219;-72
2023/06/30 04:01:21;;;;;;;11.43;8.02;;;18.90;99.90;;;;;;4979723;28;20235;-70
2023/06/30 04:04:10;;;;;;;9.45;8.43;;;19.00;99.90;;;;;;4986294;28;20385;-73
2023/06/30 04:07:01;;;;;;;11.20;8.10;;;19.00;99.90;;;;;;4993998;28;20246;-73
2023/06/30 04:09:50;;;;;;;9.10;7.90;;;19.10;99.90;;;;;;4972602;28;20423;-72
2023/06/30 04:12:38;;;;;;;10.45;7.95;;;19.10;99.90;;;;;;4980582;28;20226;-73
2023/06/30 04:15:27;;;;;;;9.85;7.93;;;19.20;99.90;;;;;;4978786;28;20227;-72
2023/06/30 04:18:16;;;;;;;10.38;8.40;;;19.20;99.90;;;;;;4971415;28;20224;-72
2023/06/30 04:21:05;;;;;;;12.80;8.55;;;19.30;99.90;;;;;;4984392;28;20223;-72
2023/06/30 04:23:55;;;;;;;8.80;7.90;;;19.40;99.90;;;;;;4976099;28;20368;-72
2023/06/30 04:26:44;;;;;;;12.70;10.45;;;19.50;99.90;;;;;;4976088;28;20594;-72
2023/06/30 04:29:33;;;;;;;12.38;8.65;;;19.60;99.90;;;;;;4969968;28;20890;-71
2023/06/30 04:32:22;;;;;;;10.93;8.15;;;19.70;99.90;;;;;;4982767;28;20310;-71
2023/06/30 04:35:11;;;;;;;9.57;8.00;;;19.70;99.90;;;;;;4975961;28;20239;-72
2023/06/30 04:38:00;;;;;;;10.70;8.75;;;19.90;99.90;;;;;;4988310;28;20222;-72
2023/06/30 04:40:51;;;;;;;10.65;8.30;;;20.00;99.90;;;;;;4974674;28;21091;-71
2023/06/30 04:43:41;;;;;;;9.43;8.32;;;20.00;99.90;;;;;;4963368;28;20227;-71
2023/06/30 04:46:30;;;;;;;9.98;8.05;;;19.80;99.90;;;;;;4991405;28;20230;-71
2023/06/30 04:49:19;;;;;;;11.70;8.63;;;20.10;99.90;;;;;;4985892;28;20230;-72
2023/06/30 04:52:08;;;;;;;10.98;8.10;;;20.20;99.90;;;;;;4973025;28;20637;-72
2023/06/30 04:54:57;;;;;;;11.70;8.32;;;20.40;99.90;;;;;;4978266;28;20227;-71
2023/06/30 04:57:49;;;;;;;13.00;8.40;;;20.40;99.90;;;;;;4995103;28;20669;-72
2023/06/30 05:00:38;;;;;;;10.80;8.52;;;20.50;99.90;;;;;;4979940;28;20586;-72
2023/06/30 05:03:27;;;;;;;9.00;8.02;;;20.60;99.90;;;;;;4979727;28;20246;-72
2023/06/30 05:06:16;;;;;;;10.77;7.68;;;20.70;99.90;;;;;;4984669;28;20220;-72
2023/06/30 05:09:05;;;;;;;11.70;7.93;;;20.80;99.90;;;;;;4981436;28;20246;-70
2023/06/30 05:11:53;;;;;;;13.65;8.25;;;20.80;99.90;;;;;;4980373;28;20353;-71
2023/06/30 05:14:44;;;;;;;12.65;7.97;;;20.90;99.90;;;;;;4973106;28;20231;-72
2023/06/30 05:17:33;;;;;;;9.25;7.70;;;20.80;99.90;;;;;;4972344;28;20219;-73
2023/06/30 05:20:22;;;;;;;9.85;6.95;;;20.90;99.90;;;;;;4977890;28;20717;-73
2023/06/30 05:23:11;;;;;;;10.73;7.13;;;21.00;99.90;;;;;;4987424;28;20274;-71
2023/06/30 05:26:00;;;;;;;8.40;7.60;;;21.10;99.90;;;;;;4975121;28;20778;-73
2023/06/30 05:28:52;;;;;;;8.27;7.35;;;21.20;99.90;;;;;;4977623;28;20604;-70
2023/06/30 05:31:54;;;;;;;9.30;7.63;;;21.30;99.90;;;;;;4993764;28;21195;-73
2023/06/30 05:34:43;;;;;;;10.93;7.38;;;21.50;99.90;;;;;;4986115;28;20595;-70
2023/06/30 05:37:32;;;;;;;9.77;7.30;;;21.50;99.90;;;;;;4981624;28;20223;-70
2023/06/30 05:40:21;;;;;;;12.30;7.50;;;21.70;99.90;;;;;;4983544;28;20663;-72
2023/06/30 05:43:10;;;;;;;10.57;7.45;;;21.90;99.90;;;;;;4995288;28;20226;-72
2023/06/30 05:45:59;;;;;;;10.02;7.50;;;22.00;99.90;;;;;;4974279;28;20393;-73
2023/06/30 05:48:50;;;;;;;10.75;8.15;;;22.00;99.90;;;;;;4975420;28;20234;-79
2023/06/30 05:51:39;;;;;;;9.93;7.07;;;22.10;99.90;;;;;;4995224;28;20230;-81
2023/06/30 05:54:28;;;;;;;10.82;7.03;;;22.10;99.90;;;;;;4968670;28;20246;-77
2023/06/30 05:57:17;;;;;;;9.25;6.57;;;22.10;99.90;;;;;;4981394;28;20227;-75
2023/06/30 06:00:07;;;;;;;9.15;7.20;;;22.10;99.90;;;;;;4975896;28;20227;-73
2023/06/30 06:03:01;;;;;;;10.50;6.90;;;22.30;99.90;;;;;;4977665;28;20309;-73
2023/06/30 06:05:52;;;;;;;10.40;6.72;;;22.30;99.90;;;;;;4973107;28;20302;-73
2023/06/30 06:08:43;;;;;;;9.05;6.57;;;22.50;99.90;;;;;;4979186;28;20603;-74
2023/06/30 06:11:32;;;;;;;11.82;6.60;;;22.40;99.90;;;;;;4981708;28;20219;-71
2023/06/30 06:14:21;;;;;;;9.85;6.40;;;22.50;99.90;;;;;;4977996;28;20258;-74
2023/06/30 06:17:10;;;;;;;10.50;6.45;;;22.60;99.90;;;;;;4981947;28;20721;-73
2023/06/30 06:19:59;;;;;;;10.13;6.60;;;22.70;99.90;;;;;;4987215;28;20908;-74
2023/06/30 06:22:49;;;;;;;9.43;5.53;;;23.30;99.90;;;;;;4984092;28;20229;-74
2023/06/30 06:25:42;;;;;;;9.38;5.82;;;23.20;99.90;;;;;;4967737;28;20257;-72
2023/06/30 06:28:33;;;;;;;12.10;5.70;;;23.20;99.90;;;;;;4973939;28;20709;-73
2023/06/30 06:31:24;;;;;;;9.50;5.70;;;23.20;99.90;;;;;;4969423;28;20246;-73
2023/06/30 06:34:13;;;;;;;9.52;5.97;;;23.30;99.90;;;;;;4974948;28;20255;-75
2023/06/30 06:37:02;;;;;;;9.93;5.60;;;23.40;99.90;;;;;;4976352;28;20229;-75
2023/06/30 06:39:53;;;;;;;6.93;5.50;;;23.70;99.90;;;;;;4974790;28;20312;-74
2023/06/30 06:42:41;;;;;;;8.10;5.13;;;24.70;99.90;;;;;;4986660;28;20230;-77
2023/06/30 06:45:30;;;;;;;10.15;5.28;;;25.00;99.90;;;;;;4984087;28;20214;-76
2023/06/30 06:48:21;;;;;;;7.28;5.25;;;25.40;99.90;;;;;;4987934;28;20234;-75
2023/06/30 06:51:10;;;;;;;6.43;4.82;;;25.30;99.90;;;;;;4975759;28;20233;-76
2023/06/30 06:53:59;;;;;;;8.38;5.10;;;25.40;99.90;;;;;;4976636;28;20710;-75
2023/06/30 06:56:51;;;;;;;6.88;5.10;;;25.30;99.90;;;;;;4974192;28;20223;-77
2023/06/30 06:59:40;;;;;;;7.95;4.32;;;25.00;99.90;;;;;;4978904;28;20322;-78
2023/06/30 07:02:29;;;;;;;11.20;4.60;;;24.80;99.90;;;;;;4977199;28;20683;-78
2023/06/30 07:05:18;;;;;;;8.13;4.50;;;24.80;99.90;;;;;;4992673;28;20230;-76
2023/06/30 07:08:08;;;;;;;10.38;4.47;;;24.70;99.90;;;;;;4972251;28;20691;-76
2023/06/30 07:10:57;;;;;;;5.68;3.78;;;25.10;99.90;;;;;;4982733;28;20215;-78
2023/06/30 07:13:48;;;;;;;7.82;4.63;;;25.40;99.90;;;;;;4972129;28;20267;-76
2023/06/30 07:16:36;;;;;;;5.30;3.50;;;26.80;99.90;;;;;;4973344;28;20222;-76
2023/06/30 07:19:25;;;;;;;9.02;3.80;;;26.90;99.90;;;;;;4981743;28;20227;-75
2023/06/30 07:22:14;;;;;;;7.60;3.72;;;26.50;99.90;;;;;;4995479;28;20220;-74
2023/06/30 07:25:06;;;;;;;11.32;4.50;;;26.70;99.90;;;;;;4989749;28;20751;-73
2023/06/30 07:27:56;;;;;;;4.18;2.90;;;26.70;99.90;;;;;;4975952;28;20310;-75
2023/06/30 07:30:48;;;;;;;4.63;3.55;;;26.80;99.90;;;;;;4987989;28;20972;-75
2023/06/30 07:33:37;;;;;;;11.35;3.45;;;27.10;99.90;;;;;;4984463;28;20219;-75
2023/06/30 07:36:25;;;;;;;6.65;3.90;;;27.10;99.90;;;;;;4973148;28;20238;-74
2023/06/30 07:39:14;;;;;;;6.85;3.78;;;27.00;99.90;;;;;;4990447;28;20312;-71
2023/06/30 07:42:04;;;;;;;7.13;3.85;;;27.10;99.90;;;;;;4977730;28;20638;-73
2023/06/30 07:44:55;;;;;;;6.13;4.15;;;27.30;99.90;;;;;;4986044;28;20934;-75
2023/06/30 07:47:47;;;;;;;7.53;3.67;;;26.90;99.90;;;;;;4976400;28;20834;-75
2023/06/30 07:50:37;;;;;;;7.35;3.53;;;26.80;99.90;;;;;;4982464;28;20223;-75
2023/06/30 07:53:27;;;;;;;6.00;3.55;;;26.80;99.90;;;;;;4980004;28;20230;-75
2023/06/30 07:56:16;;;;;;;8.50;3.30;;;26.60;99.90;;;;;;4983345;28;20235;-72
2023/06/30 07:59:05;;;;;;;7.93;3.03;;;26.90;99.90;;;;;;4980067;28;20345;-76
2023/06/30 08:01:54;;;;;;;5.78;2.88;;;27.00;99.90;;;;;;4988066;28;20250;-73
2023/06/30 08:04:44;;;;;;;4.00;2.97;;;27.20;99.90;;;;;;4990755;28;20702;-75
2023/06/30 08:07:34;;;;;;;10.88;3.40;;;27.50;99.90;;;;;;4978119;28;20353;-75
2023/06/30 08:10:38;;;;;;;5.38;3.30;;;27.80;99.90;;;;;;4988873;28;20275;-74
2023/06/30 08:13:29;;;;;;;6.88;2.90;;;27.40;99.90;;;;;;4986109;28;20310;-76
2023/06/30 08:16:18;;;;;;;4.70;3.72;;;28.00;99.90;;;;;;4982551;28;20812;-74
2023/06/30 08:19:07;;;;;;;6.57;3.05;;;28.40;99.90;;;;;;4981435;28;21007;-74
2023/06/30 08:22:18;;;;;;;5.93;4.10;;;29.20;99.90;;;;;;4992672;28;20224;-75
2023/06/30 08:25:07;;;;;;;7.80;2.85;;;29.60;97.50;;;;;;4985694;28;20641;-75
2023/06/30 08:27:57;;;;;;;5.00;2.88;;;29.90;95.40;;;;;;4983808;28;20226;-76
2023/06/30 08:30:46;;;;;;;4.20;2.80;;;30.40;99.40;;;;;;4989561;28;20223;-78
2023/06/30 08:33:35;;;;;;;3.97;3.20;;;30.60;96.20;;;;;;4979665;28;20747;-74
2023/06/30 08:36:28;;;;;;;4.13;2.60;;;30.80;97.40;;;;;;4975543;28;20585;-76
2023/06/30 08:39:19;;;;;;;5.72;2.75;;;30.80;93.30;;;;;;4983677;28;20250;-73
2023/06/30 08:42:12;;;;;;;6.10;2.80;;;31.20;95.10;;;;;;4974281;28;20870;-76
2023/06/30 08:45:03;;;;;;;4.18;2.90;;;31.30;93.40;;;;;;4990580;28;20744;-76
2023/06/30 08:47:53;;;;;;;8.07;3.15;;;31.10;91.90;;;;;;4981846;28;20233;-76
2023/06/30 08:50:44;;;;;;;7.40;3.20;;;31.60;93.20;;;;;;4999832;28;20225;-76
2023/06/30 08:53:33;;;;;;;4.65;3.20;;;32.00;88.60;;;;;;4976847;28;20298;-76
2023/06/30 08:56:26;;;;;;;5.13;3.17;;;31.50;91.30;;;;;;4979150;28;20235;-72
2023/06/30 08:59:15;;;;;;;6.40;3.13;;;31.00;89.90;;;;;;4977920;28;20554;-76
2023/06/30 09:02:04;;;;;;;6.80;2.83;;;31.00;90.40;;;;;;4991643;28;20787;-74
2023/06/30 09:04:53;;;;;;;6.22;3.05;;;31.50;89.80;;;;;;4981454;28;20745;-74
2023/06/30 09:07:48;;;;;;;6.35;3.38;;;31.70;89.30;;;;;;4982787;28;20234;-74
2023/06/30 09:10:38;;;;;;;5.95;3.25;;;32.10;90.80;;;;;;4973448;28;20523;-76
2023/06/30 09:13:29;;;;;;;4.88;3.38;;;32.40;88.00;;;;;;4990984;28;20227;-74
2023/06/30 09:16:19;;;;;;;4.07;2.60;;;32.60;87.30;;;;;;4979439;28;20227;-71
2023/06/30 09:19:08;;;;;;;4.78;2.75;;;32.40;84.80;;;;;;4979159;28;20226;-72
2023/06/30 09:21:57;;;;;;;4.15;2.92;;;32.80;83.50;;;;;;4985043;28;20219;-72
2023/06/30 09:24:46;;;;;;;4.18;2.60;;;32.90;79.10;;;;;;4987312;28;20349;-74
2023/06/30 09:27:35;;;;;;;4.65;2.70;;;33.20;81.40;;;;;;4986581;28;20348;-73
2023/06/30 09:30:33;;;;;;;4.32;2.95;;;33.20;76.90;;;;;;4979084;28;20304;-72
2023/06/30 09:33:23;;;;;;;6.72;3.08;;;32.70;86.20;;;;;;4982046;28;20242;-74
2023/06/30 09:36:17;;;;;;;4.40;3.28;;;33.40;83.70;;;;;;4974830;28;20603;-73
2023/06/30 09:39:08;;;;;;;4.78;3.22;;;33.90;78.10;;;;;;4981732;28;20229;-74
2023/06/30 09:41:57;;;;;;;5.55;3.40;;;32.60;78.70;;;;;;4980586;28;20721;-76
2023/06/30 09:44:46;;;;;;;4.60;2.58;;;31.90;82.60;;;;;;4974509;28;20311;-76
2023/06/30 09:47:38;;;;;;;6.70;2.92;;;30.50;77.00;;;;;;4974651;28;20219;-75
2023/06/30 09:50:30;;;;;;;5.38;2.92;;;29.70;83.30;;;;;;4977882;28;20227;-73
2023/06/30 09:53:20;;;;;;;4.95;2.90;;;29.40;81.90;;;;;;4973955;28;20253;-72
2023/06/30 09:56:10;;;;;;;5.38;2.80;;;29.30;85.20;;;;;;4995893;28;20237;-73
2023/06/30 09:58:59;;;;;;;5.65;2.92;;;32.00;81.90;;;;;;4976981;28;20237;-76
2023/06/30 10:01:52;;;;;;;2.88;2.67;;;33.00;77.50;;;;;;4980012;28;20231;-76
2023/06/30 10:04:46;;;;;;;4.35;2.65;;;33.90;78.90;;;;;;4989513;28;20582;-78
2023/06/30 10:07:36;;;;;;;3.22;2.30;;;35.50;72.60;;;;;;4966134;28;20777;-76
2023/06/30 10:10:25;;;;;;;3.25;2.55;;;36.20;70.30;;;;;;4977399;28;20218;-77
2023/06/30 10:13:16;;;;;;;3.90;2.42;;;36.80;66.30;;;;;;4992375;28;20238;-77
2023/06/30 10:16:07;;;;;;;4.65;2.60;;;37.00;66.30;;;;;;4981560;28;20242;-77
2023/06/30 10:19:00;;;;;;;4.97;2.45;;;34.80;62.20;;;;;;4979220;28;20229;-77
2023/06/30 10:21:54;;;;;;;3.13;2.75;;;32.60;65.40;;;;;;4978921;28;20222;-77
2023/06/30 10:24:46;;;;;;;2.67;2.47;;;31.40;71.30;;;;;;4988528;28;20229;-76
2023/06/30 10:27:37;;;;;;;3.30;2.58;;;34.20;71.00;;;;;;4974797;28;20226;-75
2023/06/30 10:30:26;;;;;;;5.45;2.80;;;33.80;68.60;;;;;;4977538;28;20227;-77
2023/06/30 10:33:15;;;;;;;3.75;2.50;;;36.50;63.80;;;;;;4972396;28;20501;-76
2023/06/30 10:36:06;;;;;;;3.58;2.30;;;38.70;64.50;;;;;;4982806;28;20225;-76
2023/06/30 10:38:56;;;;;;;4.47;2.78;;;40.30;59.10;;;;;;4980131;28;20705;-81
2023/06/30 10:41:49;;;;;;;2.90;2.17;;;41.50;56.20;;;;;;4983134;28;20344;-76
2023/06/30 10:44:39;;;;;;;3.15;2.30;;;42.00;54.50;;;;;;4994552;28;20744;-76
2023/06/30 10:47:29;;;;;;;3.78;2.70;;;37.10;55.30;;;;;;4970904;28;20284;-75
2023/06/30 10:50:19;;;;;;;3.88;3.20;;;37.20;61.60;;;;;;4995967;28;20268;-75
2023/06/30 10:53:07;;;;;;;3.53;2.60;;;40.40;57.60;;;;;;4979799;28;20336;-77
2023/06/30 10:55:58;;;;;;;6.03;2.22;;;41.80;56.50;;;;;;4982575;28;20276;-74
2023/06/30 10:58:47;;;;;;;5.18;2.80;;;43.10;53.70;;;;;;4970221;28;20758;-77
2023/06/30 11:01:38;;;;;;;3.70;2.30;;;43.40;52.40;;;;;;4984724;28;20235;-77
2023/06/30 11:04:37;;;;;;;3.70;2.20;;;44.20;51.00;;;;;;4980777;28;20233;-75
2023/06/30 11:07:27;;;;;;;5.57;2.30;;;44.00;49.70;;;;;;4977454;28;20314;-74
2023/06/30 11:10:35;;;;;;;3.90;2.33;;;40.20;49.40;;;;;;4979584;28;20223;-76
2023/06/30 11:13:38;;;;;;;5.05;2.60;;;36.90;53.00;;;;;;4984824;28;20241;-75
2023/06/30 11:16:29;;;;;;;4.05;2.40;;;34.60;57.80;;;;;;4977907;28;20232;-75
2023/06/30 11:19:24;;;;;;;4.80;4.13;;;36.40;58.00;;;;;;4976058;28;20281;-75
2023/06/30 11:22:22;;;;;;;4.22;2.50;;;34.20;60.10;;;;;;4989731;28;20226;-75
2023/06/30 11:25:11;;;;;;;5.55;3.47;;;33.00;61.30;;;;;;4980696;28;20234;-76
2023/06/30 11:28:04;;;;;;;4.70;2.28;;;32.30;62.30;;;;;;4983281;28;20226;-76
2023/06/30 11:30:54;;;;;;;3.35;2.92;;;31.60;67.60;;;;;;4978125;28;21358;-76
2023/06/30 11:33:45;;;;;;;3.40;2.80;;;31.20;65.30;;;;;;4973498;28;20594;-76
2023/06/30 11:36:34;;;;;;;3.10;2.53;;;36.50;61.30;;;;;;4977337;28;20705;-76
2023/06/30 11:39:23;;;;;;;5.28;2.55;;;40.40;57.60;;;;;;4973021;28;20730;-75
2023/06/30 11:42:13;;;;;;;4.15;2.50;;;39.10;54.60;;;;;;4975590;28;20227;-76
2023/06/30 11:45:02;;;;;;;3.92;2.58;;;36.40;56.60;;;;;;4983970;28;20218;-76
2023/06/30 11:47:54;;;;;;;5.15;2.70;;;39.60;59.10;;;;;;4986618;28;20345;-75
2023/06/30 11:50:43;;;;;;;3.85;2.67;;;42.50;55.50;;;;;;4979826;28;20235;-76
2023/06/30 11:53:33;;;;;;;5.65;2.80;;;40.00;50.90;;;;;;4970241;28;20266;-75
2023/06/30 11:56:22;;;;;;;4.53;3.00;;;36.70;55.30;;;;;;4983500;28;20230;-76
2023/06/30 11:59:11;;;;;;;4.18;2.58;;;38.70;56.20;;;;;;4997845;28;20379;-76
2023/06/30 12:02:01;;;;;;;4.40;2.80;;;42.50;52.70;;;;;;4983019;28;20316;-75
2023/06/30 12:04:51;;;;;;;3.67;2.83;;;45.10;48.20;;;;;;4993514;28;20265;-76
2023/06/30 12:07:42;;;;;;;4.53;3.20;;;46.60;46.80;;;;;;4978315;28;20760;-76
2023/06/30 12:10:38;;;;;;;2.60;2.40;;;45.70;47.00;;;;;;4992586;28;20230;-76
2023/06/30 12:13:28;;;;;;;4.00;2.78;;;45.30;45.00;;;;;;4972340;28;20210;-76
2023/06/30 12:16:18;;;;;;;4.22;2.40;;;44.60;45.40;;;;;;4994635;28;20230;-77
2023/06/30 12:19:08;;;;;;;3.33;2.25;;;44.90;43.70;;;;;;4985082;28;20273;-75
2023/06/30 12:21:59;;;;;;;2.72;2.50;;;47.50;44.10;;;;;;4982579;28;20230;-75
2023/06/30 12:24:55;;;;;;;2.60;2.40;;;48.50;43.00;;;;;;4984703;28;20233;-72
2023/06/30 12:27:44;;;;;;;5.38;2.25;;;49.80;41.50;;;;;;4988080;28;20226;-76
2023/06/30 12:30:33;;;;;;;3.10;2.33;;;50.30;39.90;;;;;;4990723;28;20223;-75
2023/06/30 12:33:23;;;;;;;5.20;2.55;;;49.80;40.70;;;;;;4979783;28;20318;-74
2023/06/30 12:36:12;;;;;;;4.18;2.58;;;49.30;39.80;;;;;;4973040;28;20226;-77
2023/06/30 12:39:02;;;;;;;5.20;2.67;;;47.90;41.80;;;;;;4994868;28;20624;-76
2023/06/30 12:41:51;;;;;;;4.07;2.40;;;48.10;39.50;;;;;;4967690;28;20215;-76
2023/06/30 12:44:40;;;;;;;8.73;3.25;;;45.60;40.20;;;;;;4970192;28;20230;-75
2023/06/30 12:47:29;;;;;;;4.20;2.33;;;46.40;41.40;;;;;;4975820;28;20245;-75
2023/06/30 12:50:19;;;;;;;6.53;2.63;;;45.90;40.30;;;;;;4990604;28;20237;-75
2023/06/30 12:53:08;;;;;;;4.68;2.40;;;40.30;44.20;;;;;;4974727;28;20325;-76
2023/06/30 12:55:58;;;;;;;5.00;2.50;;;37.50;47.70;;;;;;4993057;28;20233;-75
2023/06/30 12:58:47;;;;;;;5.95;2.63;;;35.50;50.20;;;;;;4977244;28;20222;-75
2023/06/30 13:01:36;;;;;;;5.60;2.70;;;34.10;52.60;;;;;;4988798;28;20242;-76
2023/06/30 13:04:25;;;;;;;5.82;3.03;;;33.10;54.80;;;;;;4981716;28;20235;-75
2023/06/30 13:07:16;;;;;;;7.03;2.85;;;32.40;55.90;;;;;;4989293;28;20294;-75
2023/06/30 13:10:06;;;;;;;5.00;2.75;;;31.90;58.40;;;;;;4978505;28;20257;-75
2023/06/30 13:12:56;;;;;;;4.90;2.70;;;31.40;57.40;;;;;;5003139;28;20250;-75
2023/06/30 13:15:47;;;;;;;6.82;3.17;;;30.90;59.90;;;;;;4988067;28;20273;-74
2023/06/30 13:18:36;;;;;;;6.30;3.50;;;30.50;61.00;;;;;;4987357;28;20234;-75
2023/06/30 13:21:25;;;;;;;6.53;3.47;;;30.30;60.70;;;;;;4977486;28;20226;-75
2023/06/30 13:24:14;;;;;;;6.35;3.20;;;29.90;62.00;;;;;;4986020;28;20274;-74
2023/06/30 13:27:03;;;;;;;5.05;2.78;;;29.90;62.80;;;;;;4987772;28;20226;-74
2023/06/30 13:29:54;;;;;;;5.82;3.28;;;29.70;63.00;;;;;;4984179;28;20218;-74
2023/06/30 13:32:43;;;;;;;4.28;3.30;;;29.40;64.10;;;;;;4987505;28;20574;-74
2023/06/30 13:35:33;;;;;;;6.90;3.00;;;29.20;65.40;;;;;;4983172;28;20234;-75
2023/06/30 13:38:22;;;;;;;5.00;3.58;;;28.90;66.50;;;;;;5003039;28;20263;-74
2023/06/30 13:41:11;;;;;;;6.15;3.47;;;28.80;67.70;;;;;;5009638;28;20222;-73
2023/06/30 13:44:00;;;;;;;4.97;3.40;;;28.90;69.20;;;;;;5004431;28;20202;-73
2023/06/30 13:46:50;;;;;;;6.50;4.15;;;28.80;71.00;;;;;;5007053;28;20210;-75
2023/06/30 13:49:39;;;;;;;5.50;3.50;;;28.70;69.60;;;;;;4976083;28;20361;-71
2023/06/30 13:52:27;;;;;;;6.65;3.67;;;28.70;69.40;;;;;;4980161;28;20936;-72
2023/06/30 13:55:16;;;;;;;4.30;3.50;;;28.50;71.00;;;;;;4978577;28;20578;-70
2023/06/30 13:58:05;;;;;;;4.03;3.40;;;28.50;72.00;;;;;;4992935;28;20229;-72
2023/06/30 14:00:54;;;;;;;4.93;3.75;;;28.40;71.50;;;;;;4984435;28;20317;-70
2023/06/30 14:03:48;;;;;;;3.78;3.40;;;28.40;72.00;;;;;;4988869;28;20237;-71
2023/06/30 14:06:38;;;;;;;8.57;3.45;;;28.40;71.90;;;;;;4972707;28;20366;-70
2023/06/30 14:09:27;;;;;;;6.45;3.60;;;28.40;72.20;;;;;;4973462;28;20716;-71
2023/06/30 14:12:17;;;;;;;4.22;3.25;;;28.50;72.60;;;;;;4993069;28;20715;-71
2023/06/30 14:15:08;;;;;;;5.10;3.25;;;28.60;73.20;;;;;;4992533;28;20634;-70
2023/06/30 14:17:57;;;;;;;5.75;3.47;;;28.60;72.70;;;;;;4977209;28;20234;-72
2023/06/30 14:20:48;;;;;;;4.45;3.50;;;28.60;75.50;;;;;;4976225;28;20353;-71
2023/06/30 14:23:37;;;;;;;4.97;3.42;;;28.70;72.70;;;;;;4979994;28;20213;-72
2023/06/30 14:26:26;;;;;;;6.13;4.05;;;28.70;74.10;;;;;;4979848;28;20245;-71
2023/06/30 14:29:15;;;;;;;5.82;3.40;;;28.80;76.90;;;;;;4975896;28;21034;-71
2023/06/30 14:32:05;;;;;;;6.70;3.92;;;28.80;76.30;;;;;;4974445;28;20702;-73
2023/06/30 14:34:54;;;;;;;4.47;3.53;;;28.80;75.80;;;;;;4974798;28;20222;-71
2023/06/30 14:37:45;;;;;;;4.47;3.53;;;28.80;75.50;;;;;;4965797;28;20227;-72
2023/06/30 14:40:34;;;;;;;6.95;3.65;;;28.70;75.70;;;;;;4954086;28;21014;-73
2023/06/30 14:43:23;;;;;;;4.25;3.38;;;28.80;74.50;;;;;;4973959;28;20309;-72
2023/06/30 14:46:12;;;;;;;4.70;3.53;;;28.70;73.70;;;;;;4986449;28;20839;-72